Time;durP1;ratioP1;P1;durP2;ratioP2;P2;SDS_P1;SDS_P2;PMS_P1;PMS_P2;Temp;Humidity;BMP_temperature;BMP_pressure;BME280_temperature;BME280_humidity;BME280_pressure;Samples;Min_cycle;Max_cycle;Signal;HPM_P1;HPM_P2
2022/04/04 00:01:18;;;;;;;0.20;0.20;;;2.70;99.90;;;;;;5108343;28;20492;-78
2022/04/04 00:03:45;;;;;;;0.20;0.20;;;2.80;99.90;;;;;;5075296;28;20043;-78
2022/04/04 00:06:11;;;;;;;0.20;0.20;;;2.60;99.90;;;;;;5091916;28;20837;-78
2022/04/04 00:08:38;;;;;;;0.15;0.15;;;2.70;99.90;;;;;;5091586;28;20036;-78
2022/04/04 00:11:06;;;;;;;0.20;0.20;;;2.70;99.90;;;;;;5075045;28;20048;-78
2022/04/04 00:13:33;;;;;;;0.20;0.20;;;3.40;99.90;;;;;;5108506;28;20507;-78
2022/04/04 00:16:00;;;;;;;0.20;0.20;;;2.70;99.90;;;;;;5108039;28;20115;-78
2022/04/04 00:18:27;;;;;;;0.20;0.20;;;2.70;99.90;;;;;;5108153;28;20195;-78
2022/04/04 00:20:54;;;;;;;0.20;0.20;;;2.80;99.90;;;;;;5091272;28;20046;-78
2022/04/04 00:23:21;;;;;;;0.20;0.20;;;2.70;99.90;;;;;;5108049;28;20044;-78
2022/04/04 00:25:48;;;;;;;0.20;0.20;;;2.70;99.90;;;;;;5107719;28;20058;-79
2022/04/04 00:28:15;;;;;;;0.20;0.20;;;2.70;99.90;;;;;;5108301;28;20040;-78
2022/04/04 00:30:43;;;;;;;0.20;0.20;;;2.70;99.90;;;;;;5091436;28;20043;-78
2022/04/04 00:33:10;;;;;;;0.20;0.20;;;2.80;99.90;;;;;;5107755;28;20047;-78
2022/04/04 00:35:37;;;;;;;0.20;0.20;;;2.80;99.90;;;;;;5111708;28;20032;-78
2022/04/04 00:38:08;;;;;;;0.20;0.20;;;3.60;99.90;;;;;;5094836;28;20047;-78
2022/04/04 00:40:35;;;;;;;0.20;0.20;;;2.90;99.90;;;;;;5095258;28;20405;-78
2022/04/04 00:43:01;;;;;;;0.20;0.20;;;2.90;99.90;;;;;;5111449;28;20048;-78
2022/04/04 00:45:28;;;;;;;0.20;0.20;;;2.80;99.90;;;;;;5111804;28;20048;-77
2022/04/04 00:47:55;;;;;;;0.20;0.20;;;2.90;99.90;;;;;;5111410;28;20123;-77
2022/04/04 00:50:22;;;;;;;0.20;0.20;;;2.90;99.90;;;;;;5078449;28;20129;-78
2022/04/04 00:52:50;;;;;;;0.20;0.20;;;2.90;99.90;;;;;;5111662;28;20084;-78
2022/04/04 00:55:17;;;;;;;0.20;0.20;;;3.40;99.90;;;;;;5095156;28;20040;-78
2022/04/04 00:57:44;;;;;;;0.20;0.20;;;2.80;99.90;;;;;;5078150;28;20036;-78
2022/04/04 01:00:12;;;;;;;0.20;0.20;;;2.80;99.90;;;;;;5078021;28;20075;-78
2022/04/04 01:02:41;;;;;;;0.20;0.20;;;2.90;99.90;;;;;;5094662;28;20040;-78
2022/04/04 01:05:09;;;;;;;0.20;0.20;;;2.90;99.90;;;;;;5111418;28;20043;-78
2022/04/04 01:07:38;;;;;;;0.20;0.20;;;2.90;99.90;;;;;;5095198;28;20143;-78
2022/04/04 01:10:08;;;;;;;0.20;0.20;;;2.90;99.90;;;;;;5127838;28;20037;-78
2022/04/04 01:12:35;;;;;;;0.22;0.22;;;2.90;99.90;;;;;;5095013;28;20491;-78
2022/04/04 01:15:02;;;;;;;0.20;0.20;;;3.20;99.90;;;;;;5094211;28;20844;-78
2022/04/04 01:17:30;;;;;;;0.20;0.20;;;2.90;99.90;;;;;;5111605;28;20131;-78
2022/04/04 01:19:57;;;;;;;0.20;0.20;;;3.40;99.90;;;;;;5111307;28;20043;-78
2022/04/04 01:22:25;;;;;;;0.20;0.20;;;2.90;99.90;;;;;;5095057;28;20052;-78
2022/04/04 01:24:52;;;;;;;0.20;0.20;;;3.00;99.90;;;;;;5071751;28;20057;-78
2022/04/04 01:27:19;;;;;;;0.20;0.20;;;3.00;99.90;;;;;;5054777;28;20169;-78
2022/04/04 01:29:46;;;;;;;0.20;0.20;;;3.00;99.90;;;;;;5071067;28;20083;-78
2022/04/04 01:32:13;;;;;;;0.20;0.20;;;3.00;99.90;;;;;;5087390;28;20041;-78
2022/04/04 01:34:39;;;;;;;0.20;0.20;;;3.00;99.90;;;;;;5054059;28;20409;-78
2022/04/04 01:37:06;;;;;;;0.10;0.10;;;3.00;99.90;;;;;;5054092;28;20132;-78
2022/04/04 01:39:33;;;;;;;0.20;0.20;;;3.10;99.90;;;;;;5070596;28;20036;-77
2022/04/04 01:42:00;;;;;;;0.20;0.20;;;3.70;99.90;;;;;;5070100;28;20051;-78
2022/04/04 01:44:27;;;;;;;0.20;0.20;;;3.00;99.90;;;;;;5070280;28;20076;-78
2022/04/04 01:46:54;;;;;;;0.10;0.10;;;3.10;99.90;;;;;;5070544;28;20049;-78
2022/04/04 01:49:20;;;;;;;0.20;0.20;;;3.10;99.90;;;;;;5087147;28;20052;-78
2022/04/04 01:51:47;;;;;;;0.20;0.20;;;3.00;99.90;;;;;;5053870;28;20056;-78
2022/04/04 01:54:14;;;;;;;0.20;0.20;;;3.10;99.90;;;;;;5070162;28;20072;-77
2022/04/04 01:56:43;;;;;;;0.20;0.20;;;3.10;99.90;;;;;;5070579;28;20044;-78
2022/04/04 01:59:10;;;;;;;0.25;0.25;;;3.10;99.90;;;;;;5070399;28;20048;-78
2022/04/04 02:01:37;;;;;;;0.30;0.30;;;3.10;99.90;;;;;;5053753;28;20413;-78
2022/04/04 02:04:04;;;;;;;0.20;0.20;;;3.10;99.90;;;;;;5069775;28;20041;-78
2022/04/04 02:06:30;;;;;;;0.20;0.20;;;3.50;99.90;;;;;;5053628;28;20045;-78
2022/04/04 02:08:57;;;;;;;0.10;0.10;;;3.20;99.90;;;;;;5067520;28;20183;-78
2022/04/04 02:11:24;;;;;;;0.20;0.20;;;3.30;99.90;;;;;;5029864;28;20116;-78
2022/04/04 02:13:51;;;;;;;0.20;0.20;;;3.40;99.90;;;;;;5072538;28;20116;-78
2022/04/04 02:16:18;;;;;;;0.20;0.20;;;3.20;99.90;;;;;;5080523;28;20121;-78
2022/04/04 02:18:45;;;;;;;0.20;0.20;;;3.20;99.90;;;;;;5077828;28;20069;-78
2022/04/04 02:21:11;;;;;;;0.20;0.20;;;3.30;99.90;;;;;;5068458;28;20041;-78
2022/04/04 02:23:38;;;;;;;0.20;0.20;;;3.70;99.90;;;;;;5056863;28;20046;-78
2022/04/04 02:26:05;;;;;;;0.20;0.20;;;3.40;99.90;;;;;;5076410;28;20044;-78
2022/04/04 02:28:32;;;;;;;0.10;0.10;;;3.20;99.90;;;;;;5092873;28;20032;-78
2022/04/04 02:30:59;;;;;;;0.17;0.17;;;3.20;99.90;;;;;;5076353;28;20039;-78
2022/04/04 02:33:27;;;;;;;0.20;0.20;;;3.20;99.90;;;;;;5092957;28;20660;-78
2022/04/04 02:35:54;;;;;;;0.20;0.20;;;3.30;99.90;;;;;;5060307;28;20435;-78
2022/04/04 02:38:24;;;;;;;0.20;0.20;;;3.30;99.90;;;;;;5109310;28;20036;-77
2022/04/04 02:40:52;;;;;;;0.20;0.20;;;3.30;99.90;;;;;;5109880;28;20047;-78
2022/04/04 02:43:19;;;;;;;0.20;0.20;;;3.30;99.90;;;;;;5076007;28;20606;-78
2022/04/04 02:45:46;;;;;;;0.17;0.17;;;3.30;99.90;;;;;;5109667;28;20043;-78
2022/04/04 02:48:15;;;;;;;0.20;0.20;;;3.30;99.90;;;;;;5092400;28;20088;-78
2022/04/04 02:50:43;;;;;;;0.20;0.20;;;3.30;99.90;;;;;;5076438;28;20479;-78
2022/04/04 02:53:11;;;;;;;0.20;0.20;;;3.30;99.90;;;;;;5092263;28;20036;-78
2022/04/04 02:58:23;;;;;;;0.40;0.40;;;3.40;99.90;;;;;;5108524;28;20047;-78
2022/04/04 03:00:50;;;;;;;0.10;0.10;;;3.40;99.90;;;;;;5076335;28;20035;-78
2022/04/04 03:03:17;;;;;;;0.10;0.10;;;3.40;99.90;;;;;;5092509;28;20057;-78
2022/04/04 03:05:44;;;;;;;0.20;0.20;;;3.40;99.90;;;;;;5109246;28;20075;-78
2022/04/04 03:08:11;;;;;;;0.30;0.30;;;3.50;99.90;;;;;;5075570;28;20847;-78
2022/04/04 03:10:38;;;;;;;0.20;0.20;;;3.50;99.90;;;;;;5109058;28;20048;-78
2022/04/04 03:13:05;;;;;;;0.32;0.32;;;3.60;99.90;;;;;;5075883;28;20071;-78
2022/04/04 03:15:37;;;;;;;0.17;0.17;;;3.70;99.90;;;;;;5092532;28;20141;-78
2022/04/04 03:18:04;;;;;;;0.20;0.20;;;3.70;99.90;;;;;;5109327;28;20555;-78
2022/04/04 03:20:32;;;;;;;0.20;0.20;;;3.80;99.90;;;;;;5076187;28;20088;-78
2022/04/04 03:23:00;;;;;;;0.20;0.20;;;3.90;99.90;;;;;;5075800;28;20085;-78
2022/04/04 03:25:27;;;;;;;0.10;0.10;;;3.90;99.90;;;;;;5075854;28;20073;-78
2022/04/04 03:27:54;;;;;;;0.20;0.20;;;4.00;99.90;;;;;;5092299;28;20411;-78
2022/04/04 03:30:25;;;;;;;0.20;0.20;;;4.10;99.90;;;;;;5108596;28;20060;-78
2022/04/04 03:32:54;;;;;;;0.20;0.20;;;4.10;99.90;;;;;;5108940;28;20501;-78
2022/04/04 03:35:22;;;;;;;0.10;0.10;;;4.10;99.90;;;;;;5091648;28;20036;-78
2022/04/04 03:37:51;;;;;;;0.20;0.20;;;4.60;99.90;;;;;;5108526;28;20044;-78
2022/04/04 03:40:19;;;;;;;0.10;0.10;;;4.20;99.90;;;;;;5091971;28;20044;-78
2022/04/04 03:42:48;;;;;;;0.10;0.10;;;4.20;99.90;;;;;;5108613;28;20094;-78
2022/04/04 03:45:16;;;;;;;0.25;0.25;;;4.20;99.90;;;;;;5091596;28;20043;-78
2022/04/04 03:47:43;;;;;;;0.20;0.20;;;4.30;99.90;;;;;;5091853;28;20075;-79
2022/04/04 03:50:12;;;;;;;0.20;0.20;;;4.30;99.90;;;;;;5108005;28;20405;-78
2022/04/04 03:52:44;;;;;;;0.10;0.10;;;4.30;99.90;;;;;;5108742;28;20459;-78
2022/04/04 03:55:12;;;;;;;0.20;0.20;;;4.30;99.90;;;;;;5091444;28;20037;-77
2022/04/04 03:57:40;;;;;;;0.10;0.10;;;4.50;99.90;;;;;;5091608;28;20036;-78
2022/04/04 04:00:09;;;;;;;0.10;0.10;;;5.00;99.90;;;;;;5075111;28;20040;-78
2022/04/04 04:02:37;;;;;;;0.85;0.38;;;4.30;99.90;;;;;;5091896;28;20039;-78
2022/04/04 04:05:05;;;;;;;0.20;0.20;;;4.30;99.90;;;;;;5092124;28;20083;-78
2022/04/04 04:07:32;;;;;;;0.10;0.10;;;4.30;99.90;;;;;;5108260;28;20044;-78
2022/04/04 04:09:58;;;;;;;0.10;0.10;;;4.30;99.90;;;;;;5095937;28;20543;-78
2022/04/04 04:12:25;;;;;;;0.20;0.20;;;4.30;99.90;;;;;;5112013;28;20037;-78
2022/04/04 04:14:53;;;;;;;0.20;0.20;;;4.40;99.90;;;;;;5095947;28;20068;-77
2022/04/04 04:17:24;;;;;;;0.20;0.20;;;4.30;99.90;;;;;;5079031;28;20040;-78
2022/04/04 04:22:37;;;;;;;0.20;0.20;;;4.30;99.90;;;;;;5111632;28;20044;-78
2022/04/04 04:25:06;;;;;;;0.20;0.20;;;4.40;99.90;;;;;;5112267;28;20101;-78
2022/04/04 04:27:33;;;;;;;0.20;0.20;;;4.30;99.90;;;;;;5111450;28;20052;-78
2022/04/04 04:30:00;;;;;;;0.30;0.30;;;4.30;99.90;;;;;;5095401;28;20048;-78
2022/04/04 04:32:27;;;;;;;0.20;0.20;;;4.30;99.90;;;;;;5078177;28;20117;-78
2022/04/04 04:34:53;;;;;;;0.20;0.20;;;4.30;99.90;;;;;;5078574;28;20043;-78
2022/04/04 04:37:21;;;;;;;0.15;0.15;;;4.30;99.90;;;;;;5095194;28;20050;-78
2022/04/04 04:39:48;;;;;;;0.22;0.22;;;4.30;99.90;;;;;;5095384;28;20139;-78
2022/04/04 04:42:16;;;;;;;0.10;0.10;;;4.30;99.90;;;;;;5111419;28;20048;-77
2022/04/04 04:44:44;;;;;;;0.30;0.30;;;4.30;99.90;;;;;;5111514;28;20040;-78
2022/04/04 04:47:11;;;;;;;0.20;0.20;;;4.70;99.90;;;;;;5078913;28;20044;-78
2022/04/04 04:49:38;;;;;;;0.20;0.20;;;4.30;99.90;;;;;;5077992;28;20040;-78
2022/04/04 04:52:04;;;;;;;0.55;0.55;;;4.60;99.90;;;;;;5078528;28;20097;-78
2022/04/04 04:54:31;;;;;;;0.22;0.22;;;4.20;99.90;;;;;;5111264;28;20044;-78
2022/04/04 04:56:58;;;;;;;0.20;0.20;;;4.20;99.90;;;;;;5078174;28;20130;-78
2022/04/04 04:59:25;;;;;;;0.10;0.10;;;4.20;99.90;;;;;;5077925;28;20047;-78
2022/04/04 05:01:52;;;;;;;0.20;0.20;;;4.50;99.90;;;;;;5078627;28;20493;-78
2022/04/04 05:04:18;;;;;;;0.20;0.20;;;4.20;99.90;;;;;;5077265;28;20434;-78
2022/04/04 05:06:49;;;;;;;0.20;0.20;;;4.20;99.90;;;;;;5077937;28;20032;-78
2022/04/04 05:09:19;;;;;;;0.20;0.20;;;4.50;99.90;;;;;;5110737;28;20043;-78
2022/04/04 05:11:46;;;;;;;0.28;0.28;;;4.20;99.90;;;;;;5094113;28;20106;-78
2022/04/04 05:14:16;;;;;;;0.20;0.20;;;4.20;99.90;;;;;;5094307;28;20488;-78
2022/04/04 05:16:47;;;;;;;0.20;0.20;;;4.20;99.90;;;;;;5077215;28;20043;-78
2022/04/04 05:19:17;;;;;;;0.20;0.20;;;4.70;99.90;;;;;;5110670;28;20094;-78
2022/04/04 05:21:43;;;;;;;0.10;0.10;;;4.20;99.90;;;;;;5077504;28;20059;-78
2022/04/04 05:24:11;;;;;;;0.20;0.20;;;4.20;99.90;;;;;;5111208;28;20055;-78
2022/04/04 05:26:38;;;;;;;0.20;0.20;;;4.20;99.90;;;;;;5077670;28;20052;-78
2022/04/04 05:29:05;;;;;;;0.10;0.10;;;4.30;99.90;;;;;;5085722;28;20043;-78
2022/04/04 05:31:32;;;;;;;0.20;0.20;;;4.90;99.90;;;;;;5091076;28;20078;-77
2022/04/04 05:34:01;;;;;;;0.10;0.10;;;4.30;99.90;;;;;;5099287;28;20495;-78
2022/04/04 05:36:28;;;;;;;0.20;0.20;;;4.40;99.90;;;;;;5082614;28;20067;-78
2022/04/04 05:38:58;;;;;;;0.20;0.20;;;4.90;99.90;;;;;;5088121;28;20509;-78
2022/04/04 05:41:27;;;;;;;0.10;0.10;;;4.80;99.90;;;;;;5100980;28;20101;-78
2022/04/04 05:43:54;;;;;;;0.10;0.10;;;4.20;99.90;;;;;;5099586;28;20504;-78
2022/04/04 05:46:21;;;;;;;0.17;0.17;;;4.20;99.90;;;;;;5099601;28;20314;-78
2022/04/04 05:48:48;;;;;;;0.20;0.20;;;4.20;99.90;;;;;;5076717;28;20047;-77
2022/04/04 05:51:16;;;;;;;0.20;0.20;;;4.20;99.90;;;;;;5077296;28;20040;-78
2022/04/04 05:53:43;;;;;;;0.20;0.20;;;4.10;99.90;;;;;;5093687;28;20035;-78
2022/04/04 05:56:11;;;;;;;0.30;0.30;;;4.90;99.90;;;;;;5094039;28;20488;-78
2022/04/04 05:58:38;;;;;;;0.20;0.20;;;4.10;99.90;;;;;;5110089;28;20040;-78
2022/04/04 06:01:04;;;;;;;0.20;0.20;;;4.20;99.90;;;;;;5090245;28;20035;-78
2022/04/04 06:03:31;;;;;;;0.52;0.52;;;4.20;99.90;;;;;;5073083;28;20085;-79
2022/04/04 06:05:58;;;;;;;0.20;0.20;;;4.20;99.90;;;;;;5040668;28;20036;-79
2022/04/04 06:08:24;;;;;;;0.10;0.10;;;4.10;99.90;;;;;;5073498;28;20040;-78
2022/04/04 06:10:51;;;;;;;0.20;0.20;;;4.10;99.90;;;;;;5040728;28;20037;-79
2022/04/04 06:13:19;;;;;;;0.85;0.85;;;4.30;99.90;;;;;;5061867;28;20036;-78
2022/04/04 06:15:47;;;;;;;0.20;0.20;;;4.10;99.90;;;;;;5056879;28;20043;-79
2022/04/04 06:18:15;;;;;;;0.45;0.45;;;4.10;99.90;;;;;;5091442;28;20432;-78
2022/04/04 06:20:42;;;;;;;0.20;0.20;;;4.10;99.90;;;;;;5103331;28;20416;-78
2022/04/04 06:23:11;;;;;;;0.20;0.20;;;4.40;99.90;;;;;;5096205;28;20426;-79
2022/04/04 06:25:38;;;;;;;0.15;0.15;;;4.10;99.90;;;;;;5084881;28;20045;-78
2022/04/04 06:28:06;;;;;;;0.20;0.20;;;4.10;99.90;;;;;;5081633;28;20527;-78
2022/04/04 06:30:34;;;;;;;0.30;0.30;;;4.10;99.90;;;;;;5083632;28;20162;-78
2022/04/04 06:33:04;;;;;;;0.20;0.20;;;4.00;99.90;;;;;;5071821;28;20036;-78
2022/04/04 06:35:30;;;;;;;0.20;0.20;;;4.00;99.90;;;;;;5097427;28;20036;-78
2022/04/04 06:38:00;;;;;;;0.20;0.20;;;4.00;99.90;;;;;;5089849;28;20408;-79
2022/04/04 06:40:27;;;;;;;0.43;0.30;;;4.00;99.90;;;;;;5093357;28;20043;-79
2022/04/04 06:42:56;;;;;;;0.20;0.20;;;4.00;99.90;;;;;;5092989;28;20040;-79
2022/04/04 06:45:23;;;;;;;0.20;0.20;;;4.00;99.90;;;;;;5109822;28;20050;-78
2022/04/04 06:47:51;;;;;;;0.30;0.30;;;4.50;99.90;;;;;;5089692;28;20040;-79
2022/04/04 06:50:18;;;;;;;0.20;0.20;;;4.00;99.90;;;;;;5061679;28;20047;-79
2022/04/04 06:52:45;;;;;;;0.10;0.10;;;4.00;99.90;;;;;;5106679;28;20495;-78
2022/04/04 06:55:12;;;;;;;0.10;0.10;;;4.00;99.90;;;;;;5090048;28;20119;-78
2022/04/04 06:57:39;;;;;;;0.20;0.20;;;4.00;99.90;;;;;;5073077;28;20032;-79
2022/04/04 07:00:08;;;;;;;0.20;0.20;;;4.00;99.90;;;;;;5074257;28;20040;-78
2022/04/04 07:02:36;;;;;;;0.20;0.20;;;4.00;99.90;;;;;;5102964;28;20481;-79
2022/04/04 07:05:05;;;;;;;0.20;0.20;;;4.00;99.90;;;;;;5074393;28;20028;-78
2022/04/04 07:07:32;;;;;;;0.20;0.20;;;4.00;99.90;;;;;;5097402;28;20406;-77
2022/04/04 07:10:00;;;;;;;0.20;0.20;;;4.20;99.90;;;;;;5075960;28;20051;-80
2022/04/04 07:12:27;;;;;;;0.10;0.10;;;4.60;99.90;;;;;;5090656;28;20126;-78
2022/04/04 07:14:54;;;;;;;0.20;0.20;;;4.00;99.90;;;;;;5102418;28;20090;-79
2022/04/04 07:17:21;;;;;;;0.10;0.10;;;3.90;99.90;;;;;;5039832;28;20705;-77
2022/04/04 07:19:48;;;;;;;0.20;0.20;;;4.00;99.90;;;;;;5075644;28;20076;-78
2022/04/04 07:22:16;;;;;;;0.20;0.20;;;3.90;99.90;;;;;;5078151;28;20054;-79
2022/04/04 07:24:43;;;;;;;0.20;0.20;;;3.90;99.90;;;;;;5065854;28;20057;-78
2022/04/04 07:27:10;;;;;;;0.20;0.20;;;3.90;99.90;;;;;;5059978;28;20109;-80
2022/04/04 07:29:37;;;;;;;0.20;0.20;;;3.90;99.90;;;;;;5048343;28;20041;-80
2022/04/04 07:32:05;;;;;;;0.20;0.20;;;3.90;99.90;;;;;;5032803;28;20048;-78
2022/04/04 07:34:31;;;;;;;0.20;0.20;;;4.00;99.90;;;;;;5049338;28;20033;-78
2022/04/04 07:36:58;;;;;;;0.20;0.20;;;4.10;99.90;;;;;;5037738;28;20056;-78
2022/04/04 07:39:25;;;;;;;0.20;0.20;;;4.00;99.90;;;;;;5053921;28;20122;-78
2022/04/04 07:41:51;;;;;;;0.20;0.20;;;4.30;99.90;;;;;;5045259;28;20122;-80
2022/04/04 07:44:18;;;;;;;0.10;0.10;;;4.00;99.90;;;;;;5062468;28;20036;-78
2022/04/04 07:46:45;;;;;;;0.20;0.20;;;4.10;99.90;;;;;;5051623;28;20406;-78
2022/04/04 07:49:11;;;;;;;0.20;0.20;;;4.10;99.90;;;;;;5043350;28;20076;-77
2022/04/04 07:51:38;;;;;;;0.10;0.10;;;4.00;99.90;;;;;;5047411;28;20512;-78
2022/04/04 07:54:05;;;;;;;0.20;0.20;;;4.40;99.90;;;;;;5035803;28;20042;-79
2022/04/04 07:56:32;;;;;;;0.20;0.20;;;4.10;99.90;;;;;;5068139;28;20933;-78
2022/04/04 07:58:58;;;;;;;0.20;0.20;;;4.50;99.90;;;;;;5043446;28;20049;-80
2022/04/04 08:01:25;;;;;;;0.10;0.10;;;4.10;99.90;;;;;;5033108;28;20064;-80
2022/04/04 08:03:52;;;;;;;0.20;0.20;;;4.90;99.90;;;;;;5064947;28;20152;-80
2022/04/04 08:06:19;;;;;;;0.10;0.10;;;4.20;99.90;;;;;;5031842;28;20506;-79
2022/04/04 08:08:45;;;;;;;0.20;0.20;;;4.10;99.90;;;;;;5035290;28;20041;-78
2022/04/04 08:11:13;;;;;;;0.20;0.20;;;4.10;99.90;;;;;;5081572;28;20122;-79
2022/04/04 08:13:43;;;;;;;0.20;0.20;;;4.40;99.90;;;;;;5056609;28;20053;-78
2022/04/04 08:16:10;;;;;;;0.20;0.20;;;4.20;99.90;;;;;;5050472;28;20042;-78
2022/04/04 08:18:38;;;;;;;0.10;0.10;;;4.20;99.90;;;;;;5066528;28;20063;-78
2022/04/04 08:21:05;;;;;;;0.20;0.20;;;4.20;99.90;;;;;;5065675;28;20423;-79
2022/04/04 08:23:31;;;;;;;0.20;0.20;;;4.30;99.90;;;;;;5059583;28;20063;-78
2022/04/04 08:25:59;;;;;;;0.20;0.20;;;4.30;99.90;;;;;;5031972;28;20045;-79
2022/04/04 08:28:28;;;;;;;0.30;0.30;;;4.40;99.90;;;;;;5057721;28;20045;-80
2022/04/04 08:30:54;;;;;;;0.10;0.10;;;4.30;99.90;;;;;;5064466;28;20153;-79
2022/04/04 08:33:21;;;;;;;0.10;0.10;;;4.50;99.90;;;;;;5047780;28;20192;-79
2022/04/04 08:35:48;;;;;;;0.20;0.20;;;4.90;99.90;;;;;;5063810;28;20053;-80
2022/04/04 08:38:14;;;;;;;0.20;0.20;;;4.60;99.90;;;;;;5058294;28;20533;-78
2022/04/04 08:40:44;;;;;;;0.52;0.52;;;4.50;99.90;;;;;;5052360;28;20509;-80
2022/04/04 08:43:11;;;;;;;0.20;0.20;;;4.50;99.90;;;;;;5079097;28;20075;-78
2022/04/04 08:45:41;;;;;;;0.20;0.20;;;4.60;99.90;;;;;;5035427;28;20064;-80
2022/04/04 08:48:08;;;;;;;0.20;0.20;;;4.60;99.90;;;;;;5070669;28;20092;-78
2022/04/04 08:50:37;;;;;;;0.17;0.17;;;4.70;99.90;;;;;;5042342;28;20044;-79
2022/04/04 08:53:08;;;;;;;0.20;0.20;;;4.60;99.90;;;;;;5077671;28;20073;-80
2022/04/04 08:55:35;;;;;;;0.10;0.10;;;4.60;99.90;;;;;;5050567;28;20033;-81
2022/04/04 08:58:03;;;;;;;0.20;0.20;;;4.70;99.90;;;;;;5064971;28;20045;-80
2022/04/04 09:00:30;;;;;;;0.10;0.10;;;4.70;99.90;;;;;;5060761;28;20052;-78
2022/04/04 09:03:04;;;;;;;0.20;0.20;;;4.80;99.90;;;;;;5087613;28;20041;-80
2022/04/04 09:05:33;;;;;;;0.20;0.20;;;4.80;99.90;;;;;;5071776;28;20044;-81
2022/04/04 09:08:03;;;;;;;0.20;0.20;;;5.20;99.90;;;;;;5068401;28;20072;-79
2022/04/04 09:10:36;;;;;;;0.20;0.20;;;4.90;99.90;;;;;;5057249;28;20139;-81
2022/04/04 09:13:12;;;;;;;0.10;0.10;;;5.10;99.90;;;;;;5072300;28;20128;-81
2022/04/04 09:15:57;;;;;;;0.20;0.20;;;5.00;99.90;;;;;;5073744;28;20651;-79
2022/04/04 09:18:42;;;;;;;0.20;0.20;;;5.00;99.90;;;;;;5062756;28;20041;-79
2022/04/04 09:21:18;;;;;;;0.20;0.20;;;5.20;99.90;;;;;;5085762;28;20044;-78
2022/04/04 09:23:51;;;;;;;;;;;5.10;99.90;;;;;;5087643;28;20063;-80
2022/04/04 09:26:31;;;;;;;0.10;0.10;;;5.10;99.90;;;;;;5077028;28;19920;-78
2022/04/04 09:29:00;;;;;;;0.20;0.20;;;5.20;99.90;;;;;;5058471;28;20040;-79
2022/04/04 09:31:27;;;;;;;0.20;0.20;;;5.20;99.90;;;;;;5070717;28;20058;-78
2022/04/04 09:34:01;;;;;;;0.20;0.20;;;5.20;99.90;;;;;;5063374;28;20128;-78
2022/04/04 09:36:28;;;;;;;0.20;0.20;;;5.20;99.90;;;;;;5050764;28;20033;-80
2022/04/04 09:39:08;;;;;;;0.20;0.20;;;5.20;99.90;;;;;;5072417;28;20033;-78
2022/04/04 09:41:36;;;;;;;0.10;0.10;;;5.20;99.90;;;;;;5086495;28;20486;-77
2022/04/04 09:44:16;;;;;;;0.10;0.10;;;5.30;99.90;;;;;;5063154;28;20564;-79
2022/04/04 09:46:45;;;;;;;0.17;0.17;;;5.30;99.90;;;;;;5035412;28;20041;-78
2022/04/04 09:49:20;;;;;;;0.10;0.10;;;5.30;99.90;;;;;;5053683;28;20037;-78
2022/04/04 09:51:49;;;;;;;;;;;5.30;99.90;;;;;;5054386;28;20040;-80
2022/04/04 09:54:28;;;;;;;0.20;0.20;;;5.30;99.90;;;;;;5083452;28;19999;-78
2022/04/04 09:57:09;;;;;;;0.13;0.13;;;5.40;99.90;;;;;;5086168;28;20045;-78
2022/04/04 09:59:37;;;;;;;0.20;0.20;;;5.60;99.90;;;;;;5076966;28;20056;-78
2022/04/04 10:02:05;;;;;;;0.10;0.10;;;5.40;99.90;;;;;;5058302;28;20483;-78
2022/04/04 10:04:32;;;;;;;0.20;0.20;;;5.50;99.90;;;;;;5066287;28;20037;-78
2022/04/04 10:07:05;;;;;;;0.10;0.10;;;5.50;99.90;;;;;;5061009;28;20517;-78
2022/04/04 10:09:32;;;;;;;0.15;0.15;;;5.50;99.90;;;;;;5086440;28;20041;-78
2022/04/04 10:11:59;;;;;;;0.20;0.20;;;5.50;99.90;;;;;;5039285;28;20405;-80
2022/04/04 10:14:26;;;;;;;0.20;0.20;;;5.50;99.90;;;;;;5086190;28;20432;-81
2022/04/04 10:16:54;;;;;;;0.10;0.10;;;5.70;99.90;;;;;;5069014;28;20086;-78
2022/04/04 10:19:21;;;;;;;0.20;0.20;;;5.60;99.90;;;;;;5055456;28;20075;-78
2022/04/04 10:21:47;;;;;;;0.17;0.17;;;5.50;99.90;;;;;;5066268;28;20854;-79
2022/04/04 10:24:15;;;;;;;0.10;0.10;;;5.60;99.90;;;;;;5090100;28;20048;-79
2022/04/04 10:26:44;;;;;;;0.10;0.10;;;5.60;99.90;;;;;;5091617;28;20502;-79
2022/04/04 10:29:16;;;;;;;0.20;0.20;;;5.60;99.90;;;;;;5076392;28;20039;-78
2022/04/04 10:31:48;;;;;;;0.20;0.20;;;5.60;99.90;;;;;;5103450;28;20044;-79
2022/04/04 10:34:20;;;;;;;0.20;0.20;;;5.60;99.90;;;;;;5078153;28;20032;-78
2022/04/04 10:36:55;;;;;;;0.13;0.13;;;5.60;99.90;;;;;;5082960;28;20059;-78
2022/04/04 10:39:41;;;;;;;0.10;0.10;;;5.70;99.90;;;;;;5119978;28;20039;-79
2022/04/04 10:42:28;;;;;;;0.10;0.10;;;5.70;99.90;;;;;;5101044;28;20074;-78
2022/04/04 10:44:59;;;;;;;0.13;0.13;;;5.80;99.90;;;;;;5093965;28;20556;-78
2022/04/04 10:47:28;;;;;;;0.10;0.10;;;5.70;99.90;;;;;;5104533;28;20063;-79
2022/04/04 10:50:16;;;;;;;0.15;0.15;;;5.80;99.90;;;;;;5100699;28;20052;-79
2022/04/04 10:52:44;;;;;;;0.20;0.20;;;5.80;99.90;;;;;;5071079;28;20071;-79
2022/04/04 10:55:38;;;;;;;0.10;0.10;;;5.80;99.90;;;;;;5079792;28;20488;-78
2022/04/04 10:58:14;;;;;;;0.20;0.20;;;5.80;99.90;;;;;;5089673;28;20036;-78
2022/04/04 11:00:53;;;;;;;;;;;5.90;99.90;;;;;;5089384;28;20079;-78
2022/04/04 11:03:30;;;;;;;0.20;0.20;;;5.90;99.90;;;;;;5088166;28;20073;-78
2022/04/04 11:09:03;;;;;;;0.10;0.10;;;5.90;99.90;;;;;;5103059;28;20052;-78
2022/04/04 11:11:44;;;;;;;0.10;0.10;;;5.90;99.90;;;;;;5091282;28;20090;-78
2022/04/04 11:14:12;;;;;;;0.20;0.20;;;6.00;99.90;;;;;;5105299;28;20036;-79
2022/04/04 11:20:10;;;;;;;0.10;0.10;;;6.00;99.90;;;;;;5096361;28;20114;-78
2022/04/04 11:22:43;;;;;;;0.10;0.10;;;6.00;99.90;;;;;;5097335;28;20048;-78
2022/04/04 11:25:19;;;;;;;0.10;0.10;;;6.10;99.90;;;;;;5102811;28;20050;-79
2022/04/04 11:27:48;;;;;;;0.10;0.10;;;6.10;99.90;;;;;;5089265;28;20074;-79
2022/04/04 11:30:26;;;;;;;0.10;0.10;;;6.10;99.90;;;;;;5087771;28;20041;-78
2022/04/04 11:33:07;;;;;;;0.20;0.20;;;6.10;99.90;;;;;;5087498;28;20036;-79
2022/04/04 11:35:34;;;;;;;0.10;0.10;;;6.10;99.90;;;;;;5105735;28;20028;-78
2022/04/04 11:38:05;;;;;;;0.10;0.10;;;6.20;99.90;;;;;;5048997;28;20527;-78
2022/04/04 11:40:35;;;;;;;0.15;0.15;;;6.20;99.90;;;;;;5078748;28;20070;-79
2022/04/04 11:43:08;;;;;;;0.10;0.10;;;6.20;99.90;;;;;;5080774;28;21625;-78
2022/04/04 11:45:37;;;;;;;0.10;0.10;;;6.20;99.90;;;;;;5123233;28;20109;-78
2022/04/04 11:48:07;;;;;;;0.10;0.10;;;6.20;99.90;;;;;;5107535;28;20101;-79
2022/04/04 11:50:37;;;;;;;0.10;0.10;;;6.20;99.90;;;;;;5108046;28;20161;-78
2022/04/04 11:53:05;;;;;;;0.10;0.10;;;6.20;99.90;;;;;;5091638;28;20044;-78
2022/04/04 11:55:36;;;;;;;0.10;0.10;;;6.60;99.90;;;;;;5107869;28;20047;-78
2022/04/04 11:58:10;;;;;;;0.10;0.10;;;6.30;99.90;;;;;;5107804;28;20515;-78
2022/04/04 12:00:39;;;;;;;0.10;0.10;;;6.30;99.90;;;;;;5059359;28;20044;-78
2022/04/04 12:03:14;;;;;;;0.10;0.10;;;6.40;99.90;;;;;;5107932;28;20130;-78
2022/04/04 12:05:43;;;;;;;0.10;0.10;;;6.40;99.90;;;;;;5075159;28;20040;-78
2022/04/04 12:08:11;;;;;;;0.10;0.10;;;6.40;99.90;;;;;;5074534;28;20036;-78
2022/04/04 12:10:40;;;;;;;0.10;0.10;;;6.50;99.90;;;;;;5091025;28;20555;-78
2022/04/04 12:13:19;;;;;;;0.10;0.10;;;6.50;99.90;;;;;;5085140;28;20123;-78
2022/04/04 12:15:48;;;;;;;0.10;0.10;;;6.60;99.90;;;;;;5070999;28;20580;-78
2022/04/04 12:18:29;;;;;;;0.10;0.10;;;6.60;99.90;;;;;;5075857;28;20040;-78
2022/04/04 12:21:01;;;;;;;0.10;0.10;;;6.70;99.90;;;;;;5076118;28;20040;-78
2022/04/04 12:26:17;;;;;;;0.10;0.10;;;6.70;99.90;;;;;;5097512;28;20044;-78
2022/04/04 12:28:49;;;;;;;0.20;0.20;;;6.70;99.90;;;;;;5093427;28;20048;-78
2022/04/04 12:31:27;;;;;;;0.13;0.13;;;6.70;99.90;;;;;;5089555;28;20050;-78
2022/04/04 12:34:01;;;;;;;0.10;0.10;;;6.70;99.90;;;;;;5085480;28;20093;-78
2022/04/04 12:36:29;;;;;;;0.10;0.10;;;6.70;99.90;;;;;;5111554;28;20032;-77
2022/04/04 12:39:00;;;;;;;0.10;0.10;;;6.80;99.90;;;;;;5107475;28;20040;-78
2022/04/04 12:41:27;;;;;;;0.10;0.10;;;6.70;99.90;;;;;;5105254;28;20059;-78
2022/04/04 12:44:03;;;;;;;0.10;0.10;;;6.80;99.90;;;;;;5086490;28;20036;-78
2022/04/04 12:46:32;;;;;;;0.13;0.13;;;6.80;99.90;;;;;;5085718;28;20094;-78
2022/04/04 12:49:18;;;;;;;0.10;0.10;;;6.90;99.90;;;;;;5085049;28;20114;-78
2022/04/04 12:51:58;;;;;;;0.10;0.10;;;6.90;99.90;;;;;;5094856;28;20111;-78
2022/04/04 12:54:30;;;;;;;0.10;0.10;;;6.90;99.90;;;;;;5093131;28;20412;-78
2022/04/04 12:57:02;;;;;;;0.10;0.10;;;6.90;99.90;;;;;;5101960;28;20040;-78
2022/04/04 12:59:29;;;;;;;0.10;0.10;;;6.90;99.90;;;;;;5097746;28;20085;-78
2022/04/04 13:02:10;;;;;;;0.10;0.10;;;7.00;99.90;;;;;;5091053;28;20123;-78
2022/04/04 13:04:38;;;;;;;0.10;0.10;;;7.10;99.90;;;;;;5074522;28;20093;-78
2022/04/04 13:07:24;;;;;;;0.20;0.20;;;7.10;99.90;;;;;;5057551;28;20041;-78
2022/04/04 13:09:54;;;;;;;0.10;0.10;;;7.10;99.90;;;;;;5107200;28;20151;-78
2022/04/04 13:12:30;;;;;;;0.10;0.10;;;7.20;99.90;;;;;;5068842;28;20123;-78
2022/04/04 13:14:58;;;;;;;0.10;0.10;;;7.10;99.90;;;;;;5105541;28;20043;-81
2022/04/04 13:17:39;;;;;;;0.10;0.10;;;7.20;99.90;;;;;;5078319;28;20032;-79
2022/04/04 13:20:14;;;;;;;0.10;0.10;;;7.20;99.90;;;;;;5110303;28;20051;-78
2022/04/04 13:22:44;;;;;;;0.10;0.10;;;7.20;99.90;;;;;;5107510;28;20042;-78